Churchill, Idaho
Current Conditions -  °F | °C
As of 12:53 PM on Thursday 27 Nov 2014 (Local Time) from KBYI Reporting Station
Clear Clear  
Wind Chill: 62°   Ceiling: Unl
Heat Index: 62°   Visibility: 10mi
Dew Point: 29°   Wind: 10mph
Humidity: 29%   Direction: 210°SSW
Pressure: 30.16"   Gusts: NA
Location:  42.2256°N, 114.022°W
Report Text: KBYI 271953Z AUTO 21009KT 10SM CLR 17/M02 A3016 RMK AO2 SLP193 T01671017
Loading
Personal Weather Stations






























Interactive Weather Map New forecast layout! Learn more

10-Day Weather Forecast

Advertisements
Track Severe Weather on mobile